createdAt,value
2022-11-09T00:05:58.439Z,97829.00
2022-11-09T00:09:19.766Z,97831.00
2022-11-09T00:17:01.582Z,97813.00
2022-11-09T00:19:44.227Z,97820.00
2022-11-09T00:26:33.720Z,97814.00
2022-11-09T00:29:08.473Z,97814.00
2022-11-09T00:31:44.459Z,97820.00
2022-11-09T00:34:18.824Z,97802.00
2022-11-09T00:36:53.076Z,97809.00
2022-11-09T00:39:27.415Z,97795.00
2022-11-09T00:50:27.123Z,97806.00
2022-11-09T00:53:08.174Z,97811.00
2022-11-09T01:05:07.514Z,97813.00
2022-11-09T01:07:45.810Z,97799.00
2022-11-09T01:14:32.701Z,97804.00
2022-11-09T01:18:24.269Z,97815.00
2022-11-09T01:25:59.769Z,97819.00
2022-11-09T01:32:39.349Z,97810.00
2022-11-09T01:40:31.485Z,97805.00
2022-11-09T01:43:45.176Z,97808.00
2022-11-09T01:51:12.013Z,97801.00
2022-11-09T01:57:57.722Z,97789.00
2022-11-09T02:00:52.375Z,97770.00
2022-11-09T02:11:50.808Z,97778.00
2022-11-09T02:15:08.334Z,97779.00
2022-11-09T02:21:56.578Z,97783.00
2022-11-09T02:28:50.610Z,97765.00
2022-11-09T02:31:35.254Z,97796.00
2022-11-09T02:34:14.421Z,97797.00
2022-11-09T02:36:49.380Z,97795.00
2022-11-09T02:39:28.394Z,97794.00
2022-11-09T02:46:25.189Z,97792.00
2022-11-09T02:50:01.528Z,97790.00
2022-11-09T02:56:57.857Z,97808.00
2022-11-09T02:59:38.213Z,97813.00
2022-11-09T03:02:20.436Z,97813.00
2022-11-09T03:05:02.212Z,97812.00
2022-11-09T03:07:36.597Z,97828.00
2022-11-09T03:10:11.268Z,97809.00
2022-11-09T03:12:47.026Z,97813.00
2022-11-09T03:19:32.699Z,97817.00
2022-11-09T03:27:01.695Z,97824.00
2022-11-09T03:29:51.773Z,97820.00
2022-11-09T03:36:38.757Z,97844.00
2022-11-09T03:39:37.945Z,97862.00
2022-11-09T03:42:17.212Z,97874.00
2022-11-09T03:44:57.891Z,97882.00
2022-11-09T03:52:31.778Z,97881.00
2022-11-09T03:55:26.266Z,97880.00
2022-11-09T03:58:14.344Z,97887.00
2022-11-09T04:01:21.588Z,97905.00
2022-11-09T04:04:02.373Z,97886.00
2022-11-09T04:06:36.653Z,97879.00
2022-11-09T04:09:20.477Z,97903.00
2022-11-09T04:11:54.725Z,97900.00
2022-11-09T04:14:55.890Z,97902.00
2022-11-09T04:17:40.077Z,97897.00
2022-11-09T04:20:14.457Z,97906.00
2022-11-09T04:22:57.495Z,97911.00
2022-11-09T04:25:35.819Z,97918.00
2022-11-09T04:28:14.581Z,97897.00
2022-11-09T04:30:48.877Z,97910.00
2022-11-09T04:33:28.051Z,97917.00
2022-11-09T04:36:09.485Z,97900.00
2022-11-09T04:38:44.677Z,97902.00
2022-11-09T04:41:20.426Z,97899.00
2022-11-09T04:44:02.610Z,97898.00
2022-11-09T04:46:36.912Z,97898.00
2022-11-09T04:49:12.749Z,97906.00
2022-11-09T04:51:50.536Z,97921.00
2022-11-09T04:54:26.451Z,97902.00
2022-11-09T04:57:02.450Z,97906.00
2022-11-09T04:59:56.116Z,97898.00
2022-11-09T05:03:02.443Z,97902.00
2022-11-09T05:05:48.549Z,97903.00
2022-11-09T05:08:26.667Z,97873.00
2022-11-09T05:11:20.144Z,97899.00
2022-11-09T05:14:08.492Z,97879.00
2022-11-09T05:17:20.008Z,97882.00
2022-11-09T05:19:56.471Z,97878.00
2022-11-09T05:23:00.082Z,97866.00
2022-11-09T05:25:34.704Z,97858.00
2022-11-09T05:28:26.398Z,97849.00
2022-11-09T05:31:14.410Z,97844.00
2022-11-09T05:33:51.513Z,97836.00
2022-11-09T05:36:27.836Z,97844.00
2022-11-09T05:39:03.748Z,97844.00
2022-11-09T05:41:38.004Z,97854.00
2022-11-09T05:44:12.470Z,97820.00
2022-11-09T05:48:02.436Z,97836.00
2022-11-09T05:51:03.300Z,97827.00
2022-11-09T05:54:03.348Z,97814.00
2022-11-09T05:56:56.501Z,97813.00
2022-11-09T05:59:32.452Z,97814.00
2022-11-09T06:02:23.494Z,97832.00
2022-11-09T06:05:25.927Z,97826.00
2022-11-09T06:08:31.956Z,97831.00
2022-11-09T06:11:13.163Z,97834.00
2022-11-09T06:14:02.526Z,97842.00
2022-11-09T06:16:50.506Z,97856.00
2022-11-09T06:19:44.057Z,97839.00
2022-11-09T06:22:38.048Z,97850.00
2022-11-09T06:29:25.352Z,97836.00
2022-11-09T06:31:59.672Z,97839.00
2022-11-09T06:34:33.978Z,97851.00
2022-11-09T06:37:08.538Z,97854.00
2022-11-09T06:39:44.493Z,97866.00
2022-11-09T06:42:26.526Z,97863.00
2022-11-09T06:45:02.361Z,97837.00
2022-11-09T06:47:38.550Z,97873.00
2022-11-09T06:50:13.217Z,97880.00
2022-11-09T06:52:47.517Z,97887.00
2022-11-09T06:55:21.813Z,97894.00
2022-11-09T06:57:56.542Z,97903.00
2022-11-09T07:00:34.354Z,97885.00
2022-11-09T07:03:16.236Z,97899.00
2022-11-09T07:05:53.166Z,97914.00
2022-11-09T07:08:27.401Z,97920.00
2022-11-09T07:11:05.934Z,97909.00
2022-11-09T07:13:44.477Z,97926.00
2022-11-09T07:16:20.285Z,97908.00
2022-11-09T07:18:54.540Z,97900.00
2022-11-09T07:21:32.612Z,97921.00
2022-11-09T07:24:08.936Z,97909.00
2022-11-09T07:26:56.514Z,97918.00
2022-11-09T07:29:36.205Z,97925.00
2022-11-09T07:32:16.134Z,97917.00
2022-11-09T07:34:50.530Z,97919.00
2022-11-09T07:37:26.518Z,97914.00
2022-11-09T07:40:00.775Z,97922.00
2022-11-09T07:42:38.417Z,97954.00
2022-11-09T07:45:13.009Z,97946.00
2022-11-09T07:47:57.484Z,97928.00
2022-11-09T07:50:50.515Z,97954.00
2022-11-09T07:53:25.071Z,98005.00
2022-11-09T07:56:04.686Z,98011.00
2022-11-09T07:58:44.435Z,98007.00
2022-11-09T08:01:20.560Z,97997.00
2022-11-09T08:03:56.262Z,97994.00
2022-11-09T08:06:32.673Z,98026.00
2022-11-09T08:09:06.991Z,98005.00
2022-11-09T08:11:44.593Z,98000.00
2022-11-09T08:14:19.068Z,98007.00
2022-11-09T08:17:08.468Z,98025.00
2022-11-09T08:19:44.079Z,98009.00
2022-11-09T08:26:50.022Z,98022.00
2022-11-09T08:29:32.625Z,98026.00
2022-11-09T08:32:20.524Z,98027.00
2022-11-09T08:39:08.348Z,98027.00
2022-11-09T08:42:08.073Z,98038.00
2022-11-09T08:44:44.672Z,98035.00
2022-11-09T08:48:08.214Z,98049.00
2022-11-09T08:51:49.779Z,98049.00
2022-11-09T08:54:28.090Z,98046.00
2022-11-09T08:57:02.511Z,98045.00
2022-11-09T09:00:02.311Z,98042.00
2022-11-09T09:06:42.208Z,98026.00
2022-11-09T09:10:11.082Z,98027.00
2022-11-09T09:12:47.183Z,98027.00
2022-11-09T09:16:11.233Z,98029.00
2022-11-09T09:23:55.958Z,98001.00
2022-11-09T09:26:56.290Z,97976.00
2022-11-09T09:30:48.569Z,97991.00
2022-11-09T09:38:21.956Z,97993.00
2022-11-09T09:50:02.710Z,98002.00
2022-11-09T09:53:34.526Z,97996.00
2022-11-09T09:56:32.059Z,98004.00
2022-11-09T09:59:33.601Z,97993.00
2022-11-09T10:06:44.456Z,98010.00
2022-11-09T10:10:14.277Z,98009.00
2022-11-09T10:17:25.322Z,98005.00
2022-11-09T10:24:28.585Z,98001.00
2022-11-09T10:27:24.331Z,98001.00
2022-11-09T10:34:20.360Z,97991.00
2022-11-09T10:38:24.677Z,97994.00
2022-11-09T10:41:31.344Z,97993.00
2022-11-09T10:45:01.866Z,97983.00
2022-11-09T10:51:46.581Z,97981.00
2022-11-09T10:58:35.420Z,97958.00
2022-11-09T11:05:41.471Z,97979.00
2022-11-09T11:13:38.532Z,97985.00
2022-11-09T11:20:34.430Z,97972.00
2022-11-09T11:24:20.193Z,97973.00
2022-11-09T11:27:07.877Z,97969.00
2022-11-09T11:33:58.909Z,97966.00
2022-11-09T11:41:35.824Z,97966.00
2022-11-09T12:19:52.809Z,97924.00
2022-11-09T12:23:22.102Z,97940.00
2022-11-09T12:26:23.843Z,97937.00
2022-11-09T12:29:17.211Z,97932.00
2022-11-09T12:32:29.431Z,97944.00
2022-11-09T12:46:27.520Z,97910.00
2022-11-09T12:52:29.264Z,97917.00
2022-11-09T12:55:14.531Z,97912.00
2022-11-09T12:59:02.241Z,97917.00
2022-11-09T13:06:15.243Z,97918.00
2022-11-09T13:13:22.940Z,97921.00
2022-11-09T13:20:55.970Z,97930.00
2022-11-09T13:24:39.662Z,97923.00
2022-11-09T13:32:02.832Z,97936.00
2022-11-09T13:34:46.575Z,97938.00
2022-11-09T13:37:58.844Z,97923.00
2022-11-09T13:41:32.534Z,97937.00
2022-11-09T13:44:50.295Z,97939.00
2022-11-09T13:51:47.779Z,97932.00
2022-11-09T13:59:17.677Z,97952.00
2022-11-09T14:01:54.374Z,97936.00
2022-11-09T14:08:44.796Z,97954.00
2022-11-09T14:12:01.172Z,97959.00
2022-11-09T14:14:56.985Z,97965.00
2022-11-09T14:17:40.667Z,97970.00
2022-11-09T14:24:32.783Z,97986.00
2022-11-09T14:27:26.788Z,97974.00
2022-11-09T14:34:18.085Z,97993.00
2022-11-09T14:40:58.617Z,97992.00
2022-11-09T14:47:48.820Z,97999.00
2022-11-09T14:51:40.490Z,98006.00
2022-11-09T14:58:31.006Z,98008.00
2022-11-09T15:05:36.627Z,98017.00
2022-11-09T15:08:21.242Z,98030.00
2022-11-09T15:10:55.987Z,98002.00
2022-11-09T15:13:36.733Z,98006.00
2022-11-09T15:16:35.969Z,98010.00
2022-11-09T15:19:24.210Z,98018.00
2022-11-09T15:21:58.820Z,98023.00
2022-11-09T15:24:47.811Z,98023.00
2022-11-09T15:27:34.524Z,98026.00
2022-11-09T15:30:36.434Z,98026.00
2022-11-09T15:33:25.507Z,98032.00
2022-11-09T15:40:14.397Z,98022.00
2022-11-09T15:47:10.643Z,98040.00
2022-11-09T15:49:46.437Z,98024.00
2022-11-09T15:52:20.805Z,98040.00
2022-11-09T15:54:55.361Z,98048.00
2022-11-09T15:57:38.970Z,98039.00
2022-11-09T16:00:20.817Z,98041.00
2022-11-09T16:03:21.957Z,98042.00
2022-11-09T16:06:32.677Z,98033.00
2022-11-09T16:09:44.763Z,98048.00
2022-11-09T16:13:49.051Z,98055.00
2022-11-09T16:17:14.193Z,98056.00
2022-11-09T16:20:05.193Z,98042.00
2022-11-09T16:23:38.271Z,98059.00
2022-11-09T16:26:32.810Z,98059.00
2022-11-09T16:29:08.893Z,98046.00
2022-11-09T16:35:50.501Z,98071.00
2022-11-09T16:38:25.042Z,98074.00
2022-11-09T16:41:05.329Z,98074.00
2022-11-09T16:43:39.971Z,98073.00
2022-11-09T16:46:21.239Z,98091.00
2022-11-09T16:48:58.128Z,98087.00
2022-11-09T16:51:40.772Z,98096.00
2022-11-09T16:54:50.521Z,98100.00
2022-11-09T16:57:26.816Z,98101.00
2022-11-09T17:00:03.712Z,98081.00
2022-11-09T17:02:38.052Z,98105.00
2022-11-09T17:05:14.970Z,98111.00
2022-11-09T17:07:54.774Z,98115.00
2022-11-09T17:10:47.387Z,98122.00
2022-11-09T17:13:21.524Z,98120.00
2022-11-09T17:15:55.803Z,98122.00
2022-11-09T17:18:44.979Z,98118.00
2022-11-09T17:21:30.042Z,98123.00
2022-11-09T17:24:29.128Z,98129.00
2022-11-09T17:27:10.423Z,98134.00
2022-11-09T17:30:05.015Z,98149.00
2022-11-09T17:32:46.379Z,98119.00
2022-11-09T17:35:21.329Z,98126.00
2022-11-09T17:38:38.473Z,98139.00
2022-11-09T17:45:26.676Z,98155.00
2022-11-09T17:53:26.572Z,98155.00
2022-11-09T17:56:44.672Z,98149.00
2022-11-09T17:59:21.647Z,98155.00
2022-11-09T18:02:22.720Z,98145.00
2022-11-09T18:09:50.579Z,98162.00
2022-11-09T18:12:39.898Z,98159.00
2022-11-09T18:15:27.082Z,98162.00
2022-11-09T18:18:05.924Z,98158.00
2022-11-09T18:21:44.588Z,98156.00
2022-11-09T18:24:21.244Z,98163.00
2022-11-09T18:26:57.055Z,98163.00
2022-11-09T18:29:33.599Z,98164.00
2022-11-09T18:33:04.362Z,98180.00
2022-11-09T18:36:11.453Z,98191.00
2022-11-09T18:39:59.784Z,98200.00
2022-11-09T18:43:09.053Z,98204.00
2022-11-09T18:45:45.451Z,98214.00
2022-11-09T18:49:10.163Z,98209.00
2022-11-09T18:52:50.540Z,98214.00
2022-11-09T18:55:26.117Z,98211.00
2022-11-09T19:02:14.626Z,98223.00
2022-11-09T19:04:58.796Z,98222.00
2022-11-09T19:08:02.830Z,98221.00
2022-11-09T19:14:48.665Z,98232.00
2022-11-09T19:17:33.439Z,98218.00
2022-11-09T19:25:04.178Z,98231.00
2022-11-09T19:29:11.557Z,98231.00
2022-11-09T19:33:01.122Z,98240.00
2022-11-09T19:36:28.196Z,98238.00
2022-11-09T19:38:51.280Z,98245.00
2022-11-09T19:42:04.844Z,98244.00
2022-11-09T19:44:58.034Z,98252.00
2022-11-09T19:47:32.884Z,98253.00
2022-11-09T19:50:10.283Z,98264.00
2022-11-09T19:52:57.574Z,98273.00
2022-11-09T19:55:33.587Z,98255.00
2022-11-09T19:58:34.503Z,98284.00
2022-11-09T20:01:12.055Z,98265.00
2022-11-09T20:04:10.243Z,98290.00
2022-11-09T20:06:47.369Z,98279.00
2022-11-09T20:09:52.094Z,98295.00
2022-11-09T20:13:26.541Z,98299.00
2022-11-09T20:17:03.741Z,98308.00
2022-11-09T20:23:58.978Z,98316.00
2022-11-09T20:27:21.255Z,98314.00
2022-11-09T20:34:09.800Z,98329.00
2022-11-09T20:37:51.600Z,98326.00
2022-11-09T20:41:00.594Z,98330.00
2022-11-09T20:48:54.186Z,98354.00
2022-11-09T20:55:58.424Z,98356.00
2022-11-09T20:58:45.495Z,98340.00
2022-11-09T21:01:46.205Z,98361.00
2022-11-09T21:04:33.411Z,98366.00
2022-11-09T21:07:07.671Z,98373.00
2022-11-09T21:09:45.294Z,98384.00
2022-11-09T21:12:24.604Z,98366.00
2022-11-09T21:15:38.571Z,98377.00
2022-11-09T21:19:31.305Z,98380.00
2022-11-09T21:26:38.847Z,98389.00
2022-11-09T21:29:52.364Z,98382.00
2022-11-09T21:36:38.748Z,98382.00
2022-11-09T21:39:21.388Z,98393.00
2022-11-09T21:43:12.224Z,98391.00
2022-11-09T21:47:10.296Z,98397.00
2022-11-09T21:49:45.989Z,98398.00
2022-11-09T22:00:43.936Z,98419.00
2022-11-09T22:07:32.671Z,98420.00
2022-11-09T22:14:39.581Z,98429.00
2022-11-09T22:21:26.761Z,98425.00
2022-11-09T22:24:05.231Z,98407.00
2022-11-09T22:30:45.924Z,98434.00
2022-11-09T22:37:32.780Z,98442.00
2022-11-09T22:44:20.444Z,98441.00
2022-11-09T22:47:12.456Z,98460.00
2022-11-09T22:49:46.892Z,98453.00
2022-11-09T22:57:03.104Z,98475.00
2022-11-09T23:00:33.569Z,98475.00
2022-11-09T23:03:41.337Z,98474.00
2022-11-09T23:06:47.421Z,98478.00
2022-11-09T23:18:04.553Z,98497.00
2022-11-09T23:25:02.178Z,98509.00
2022-11-09T23:28:29.249Z,98527.00
2022-11-09T23:35:11.581Z,98540.00
2022-11-09T23:42:15.368Z,98542.00
2022-11-09T23:45:09.589Z,98529.00
2022-11-09T23:48:15.539Z,98555.00
2022-11-09T23:54:59.402Z,98552.00
